Time;durP1;ratioP1;P1;durP2;ratioP2;P2;SDS_P1;SDS_P2;PMS_P1;PMS_P2;Temp;Humidity;BMP_temperature;BMP_pressure;BME280_temperature;BME280_humidity;BME280_pressure;Samples;Min_cycle;Max_cycle;Signal;HPM_P1;HPM_P2
2022/11/13 00:00:30;;;;;;;6.90;4.43;;;8.90;99.90;;;;;;6156267;23;20296;-43
2022/11/13 00:02:55;;;;;;;6.63;3.67;;;8.90;99.90;;;;;;6156075;23;20477;-43
2022/11/13 00:05:21;;;;;;;5.57;4.10;;;8.80;99.90;;;;;;6156223;23;20592;-44
2022/11/13 00:07:47;;;;;;;5.27;4.43;;;8.80;99.90;;;;;;6156417;23;20181;-43
2022/11/13 00:10:12;;;;;;;4.83;4.20;;;8.80;99.90;;;;;;6156448;23;20166;-43
2022/11/13 00:12:38;;;;;;;6.33;5.07;;;8.80;99.90;;;;;;6156167;23;20204;-44
2022/11/13 00:15:04;;;;;;;6.63;4.43;;;8.80;99.90;;;;;;6155764;23;20213;-42
2022/11/13 00:17:29;;;;;;;4.63;3.83;;;8.70;99.90;;;;;;6155784;23;20185;-41
2022/11/13 00:19:55;;;;;;;7.70;4.77;;;8.70;99.90;;;;;;6156192;23;20146;-43
2022/11/13 00:22:20;;;;;;;5.40;3.63;;;8.70;99.90;;;;;;6155872;23;20149;-42
2022/11/13 00:24:46;;;;;;;5.53;4.23;;;8.70;99.90;;;;;;6156158;23;20154;-44
2022/11/13 00:27:12;;;;;;;4.37;3.17;;;8.80;99.90;;;;;;6155688;23;20161;-43
2022/11/13 00:29:37;;;;;;;4.93;3.67;;;8.80;99.90;;;;;;6156102;23;20157;-44
2022/11/13 00:32:03;;;;;;;7.30;4.60;;;8.80;99.90;;;;;;6155814;23;20157;-43
2022/11/13 00:34:29;;;;;;;8.37;4.50;;;8.90;99.90;;;;;;6155620;23;20173;-44
2022/11/13 00:36:54;;;;;;;5.93;3.80;;;8.90;99.90;;;;;;6156102;23;20162;-43
2022/11/13 00:39:20;;;;;;;5.23;4.10;;;9.00;99.90;;;;;;6156060;23;20683;-44
2022/11/13 00:41:45;;;;;;;4.47;3.80;;;9.00;99.90;;;;;;6156088;23;20471;-43
2022/11/13 00:44:11;;;;;;;6.37;4.00;;;9.10;99.90;;;;;;6156104;23;20484;-43
2022/11/13 00:46:37;;;;;;;4.77;4.10;;;9.10;99.90;;;;;;6155736;23;20164;-43
2022/11/13 00:49:02;;;;;;;5.43;3.50;;;9.10;99.90;;;;;;6155722;23;20241;-42
2022/11/13 00:51:28;;;;;;;5.30;3.53;;;9.10;99.90;;;;;;6155697;23;20158;-45
2022/11/13 00:53:53;;;;;;;5.53;3.93;;;9.10;99.90;;;;;;6156006;23;20277;-43
2022/11/13 00:56:19;;;;;;;4.73;3.87;;;9.10;99.90;;;;;;6155585;23;20518;-44
2022/11/13 00:58:44;;;;;;;5.90;4.40;;;9.10;99.90;;;;;;6129519;23;20178;-44
2022/11/13 01:01:15;;;;;;;8.37;4.73;;;9.10;99.90;;;;;;6155864;23;20178;-44
2022/11/13 01:03:41;;;;;;;5.70;4.57;;;9.10;99.90;;;;;;6157901;23;20148;-44
2022/11/13 01:06:32;;;;;;;7.40;4.40;;;9.10;99.90;;;;;;6157421;23;20185;-44
2022/11/13 01:08:58;;;;;;;4.90;4.37;;;9.10;99.90;;;;;;6157402;23;20181;-42
2022/11/13 01:11:26;;;;;;;4.13;3.10;;;9.10;99.90;;;;;;6157328;23;20623;-42
2022/11/13 01:13:52;;;;;;;5.20;4.20;;;9.10;99.90;;;;;;6157305;23;20559;-45
2022/11/13 01:16:21;;;;;;;5.53;3.90;;;9.10;99.90;;;;;;6157549;23;20208;-43
2022/11/13 01:18:47;;;;;;;5.77;4.77;;;9.10;99.90;;;;;;6157499;23;20205;-44
2022/11/13 01:21:24;;;;;;;4.63;3.10;;;9.10;99.90;;;;;;6157357;23;20154;-42
2022/11/13 01:23:50;;;;;;;5.37;4.20;;;9.00;99.90;;;;;;6157221;23;20173;-43
2022/11/13 01:26:26;;;;;;;5.13;4.03;;;9.10;99.90;;;;;;6157326;23;20588;-44
2022/11/13 01:28:52;;;;;;;6.53;4.60;;;9.10;99.90;;;;;;6157423;23;20633;-44
2022/11/13 01:31:21;;;;;;;4.77;3.93;;;9.00;99.90;;;;;;6157565;23;20165;-45
2022/11/13 01:33:47;;;;;;;6.00;4.37;;;9.00;99.90;;;;;;6157178;23;20174;-44
2022/11/13 01:36:16;;;;;;;5.77;4.97;;;9.00;99.90;;;;;;6157100;23;20182;-45
2022/11/13 01:38:42;;;;;;;5.90;4.30;;;9.00;99.90;;;;;;6157414;23;20205;-44
2022/11/13 01:41:20;;;;;;;5.97;4.30;;;8.90;99.90;;;;;;6157547;23;20161;-45
2022/11/13 01:43:46;;;;;;;6.00;4.77;;;8.90;99.90;;;;;;6156944;23;20204;-44
2022/11/13 01:46:19;;;;;;;5.60;4.47;;;8.80;99.90;;;;;;6157435;23;20590;-44
2022/11/13 01:49:09;;;;;;;5.83;4.27;;;8.70;99.90;;;;;;6157236;23;20257;-43
2022/11/13 01:51:52;;;;;;;5.73;4.93;;;8.60;99.90;;;;;;6157358;23;20182;-44
2022/11/13 01:55:01;;;;;;;5.50;4.57;;;8.60;99.90;;;;;;6158077;23;20150;-42
2022/11/13 01:57:27;;;;;;;6.27;4.60;;;8.60;99.90;;;;;;6156408;23;20244;-47
2022/11/13 02:00:00;;;;;;;6.87;4.77;;;8.60;99.90;;;;;;6157280;23;20548;-47
2022/11/13 02:02:25;;;;;;;5.03;4.13;;;8.70;99.90;;;;;;6157360;23;20482;-49
2022/11/13 02:04:52;;;;;;;8.00;4.43;;;8.70;99.90;;;;;;6157214;23;20184;-48
2022/11/13 02:07:20;;;;;;;5.63;4.10;;;8.70;99.90;;;;;;6156928;23;20150;-47
2022/11/13 02:09:49;;;;;;;6.13;4.37;;;8.70;99.90;;;;;;6157051;23;20161;-48
2022/11/13 02:12:35;;;;;;;6.03;4.93;;;8.60;99.90;;;;;;6156809;23;20222;-48
2022/11/13 02:15:04;;;;;;;6.63;4.77;;;8.60;99.90;;;;;;6156346;23;20714;-48
2022/11/13 02:17:44;;;;;;;5.63;4.80;;;8.60;99.90;;;;;;6156899;23;20237;-48
2022/11/13 02:20:10;;;;;;;5.63;4.50;;;8.50;99.90;;;;;;6157446;23;20142;-47
2022/11/13 02:22:39;;;;;;;7.23;4.73;;;8.50;99.90;;;;;;6156785;23;20158;-47
2022/11/13 02:25:07;;;;;;;6.27;4.60;;;8.50;99.90;;;;;;6156951;23;20169;-48
2022/11/13 02:27:44;;;;;;;7.03;4.87;;;8.50;99.90;;;;;;6156877;23;20181;-49
2022/11/13 02:30:15;;;;;;;5.20;4.43;;;8.40;99.90;;;;;;6156627;23;20199;-49
2022/11/13 02:32:46;;;;;;;5.90;4.53;;;8.30;99.90;;;;;;6156518;23;20637;-48
2022/11/13 02:35:16;;;;;;;5.80;5.20;;;8.30;99.90;;;;;;6156892;23;20539;-47
2022/11/13 02:37:42;;;;;;;6.77;5.40;;;8.20;99.90;;;;;;6156978;23;20165;-48
2022/11/13 02:40:08;;;;;;;6.17;4.80;;;8.10;99.90;;;;;;6156560;23;20256;-48
2022/11/13 02:42:33;;;;;;;7.23;5.10;;;8.00;99.90;;;;;;6156567;23;20490;-46
2022/11/13 02:45:00;;;;;;;5.30;4.67;;;8.00;99.90;;;;;;6156512;23;20157;-48
2022/11/13 02:47:26;;;;;;;6.43;5.10;;;7.90;99.90;;;;;;6156727;23;20165;-48
2022/11/13 02:49:51;;;;;;;6.27;5.03;;;7.80;99.90;;;;;;6156823;23;20232;-47
2022/11/13 02:52:26;;;;;;;6.23;5.00;;;7.70;99.90;;;;;;6156704;23;20169;-49
2022/11/13 02:54:52;;;;;;;7.17;5.63;;;7.70;99.90;;;;;;6157244;23;20185;-49
2022/11/13 02:57:17;;;;;;;6.23;5.00;;;7.60;99.90;;;;;;6156971;23;20475;-50
2022/11/13 02:59:44;;;;;;;6.47;5.00;;;7.60;99.90;;;;;;6156998;23;20495;-48
2022/11/13 03:02:10;;;;;;;6.37;4.87;;;7.60;99.90;;;;;;6156980;23;20180;-50
2022/11/13 03:04:35;;;;;;;5.30;4.53;;;7.60;99.90;;;;;;6157150;23;20592;-49
2022/11/13 03:07:01;;;;;;;6.67;5.27;;;7.60;99.90;;;;;;6157106;23;20592;-49
2022/11/13 03:09:27;;;;;;;6.43;4.93;;;7.60;99.90;;;;;;6157043;23;20173;-49
2022/11/13 03:11:52;;;;;;;5.87;5.00;;;7.60;99.90;;;;;;6157684;23;20222;-49
2022/11/13 03:14:18;;;;;;;5.73;4.80;;;7.60;99.90;;;;;;6157380;23;20154;-49
2022/11/13 03:16:43;;;;;;;5.43;4.40;;;7.50;99.90;;;;;;6157072;23;20177;-50
2022/11/13 03:19:09;;;;;;;5.97;4.83;;;7.60;99.90;;;;;;6157627;23;20496;-50
2022/11/13 03:21:34;;;;;;;5.90;4.63;;;7.60;99.90;;;;;;6156855;23;20537;-44
2022/11/13 03:24:00;;;;;;;6.53;5.00;;;7.60;99.90;;;;;;6156114;23;20160;-45
2022/11/13 03:26:28;;;;;;;6.83;4.90;;;7.60;99.90;;;;;;6156167;23;20188;-44
2022/11/13 03:28:54;;;;;;;5.87;4.60;;;7.60;99.90;;;;;;6156039;23;20207;-45
2022/11/13 03:31:20;;;;;;;5.53;4.60;;;7.60;99.90;;;;;;6156472;23;20168;-45
2022/11/13 03:33:46;;;;;;;8.37;4.97;;;7.50;99.90;;;;;;6156033;23;20170;-42
2022/11/13 03:36:12;;;;;;;6.67;4.77;;;7.50;99.90;;;;;;6156095;23;20177;-41
2022/11/13 03:38:37;;;;;;;7.37;4.80;;;7.50;99.90;;;;;;6156710;23;20182;-43
2022/11/13 03:41:03;;;;;;;7.47;5.00;;;7.50;99.90;;;;;;6156083;23;20518;-42
2022/11/13 03:43:29;;;;;;;8.27;4.80;;;7.50;99.90;;;;;;6156160;23;20595;-46
2022/11/13 03:45:54;;;;;;;6.33;4.93;;;7.40;99.90;;;;;;6156531;23;20161;-46
2022/11/13 03:48:20;;;;;;;7.13;4.83;;;7.40;99.90;;;;;;6156407;23;20631;-44
2022/11/13 03:50:49;;;;;;;6.83;4.50;;;7.40;99.90;;;;;;6156427;23;20599;-44
2022/11/13 03:53:14;;;;;;;5.60;4.77;;;7.30;99.90;;;;;;6156431;23;20496;-44
2022/11/13 03:55:41;;;;;;;5.33;4.30;;;7.30;99.90;;;;;;6156281;23;20177;-43
2022/11/13 03:58:06;;;;;;;4.97;4.40;;;7.30;99.90;;;;;;6155850;23;20179;-44
2022/11/13 04:00:32;;;;;;;5.43;4.50;;;7.20;99.90;;;;;;6156136;23;20158;-43
2022/11/13 04:02:58;;;;;;;5.57;4.60;;;7.20;99.90;;;;;;6156314;23;20467;-44
2022/11/13 04:05:23;;;;;;;6.03;4.50;;;7.20;99.90;;;;;;6156622;23;20173;-44
2022/11/13 04:07:50;;;;;;;6.77;4.93;;;7.30;99.90;;;;;;6155825;23;20220;-43
2022/11/13 04:10:16;;;;;;;6.70;5.00;;;7.30;99.90;;;;;;6155878;23;20244;-44
2022/11/13 04:12:41;;;;;;;5.80;4.80;;;7.30;99.90;;;;;;6156127;23;20164;-41
2022/11/13 04:15:07;;;;;;;6.07;5.00;;;7.30;99.90;;;;;;6155758;23;20232;-42
2022/11/13 04:17:32;;;;;;;7.13;5.43;;;7.30;99.90;;;;;;6156086;23;20187;-43
2022/11/13 04:19:58;;;;;;;5.97;4.63;;;7.20;99.90;;;;;;6155837;23;20215;-42
2022/11/13 04:22:23;;;;;;;6.67;5.20;;;7.20;99.90;;;;;;6155826;23;20157;-45
2022/11/13 04:24:49;;;;;;;10.00;5.03;;;7.20;99.90;;;;;;6157130;23;20162;-44
2022/11/13 04:27:15;;;;;;;8.83;4.60;;;7.10;99.90;;;;;;6156069;23;20256;-44
2022/11/13 04:29:40;;;;;;;6.57;4.47;;;7.00;99.90;;;;;;6155843;23;20245;-44
2022/11/13 04:32:06;;;;;;;7.00;5.00;;;7.00;99.90;;;;;;6155748;23;20205;-42
2022/11/13 04:34:32;;;;;;;6.10;5.03;;;7.00;99.90;;;;;;6155559;23;20224;-42
2022/11/13 04:36:57;;;;;;;7.00;5.20;;;6.90;99.90;;;;;;6156899;23;20243;-42
2022/11/13 04:39:23;;;;;;;6.57;4.97;;;6.90;99.90;;;;;;6158558;23;20180;-44
2022/11/13 04:44:33;;;;;;;5.67;4.43;;;6.80;99.90;;;;;;6157694;23;20166;-46
2022/11/13 04:46:58;;;;;;;8.00;4.90;;;6.70;99.90;;;;;;6157614;23;20242;-43
2022/11/13 04:49:24;;;;;;;5.70;4.70;;;6.60;99.90;;;;;;6157513;23;20254;-43
2022/11/13 04:51:49;;;;;;;7.00;5.53;;;6.60;99.90;;;;;;6157867;23;20159;-45
2022/11/13 04:54:15;;;;;;;5.40;4.50;;;6.50;99.90;;;;;;6157644;23;20543;-42
2022/11/13 04:56:40;;;;;;;6.07;4.93;;;6.50;99.90;;;;;;6131328;23;20518;-43
2022/11/13 04:59:06;;;;;;;5.87;4.93;;;6.40;99.90;;;;;;6157398;23;20174;-43
2022/11/13 05:01:33;;;;;;;8.03;5.03;;;6.40;99.90;;;;;;6157719;23;20165;-42
2022/11/13 05:03:59;;;;;;;5.53;4.50;;;6.30;99.90;;;;;;6157814;23;20184;-44
2022/11/13 05:06:24;;;;;;;7.13;5.10;;;6.20;99.90;;;;;;6157405;23;20156;-42
2022/11/13 05:08:50;;;;;;;7.10;4.60;;;6.10;99.90;;;;;;6157350;23;20205;-44
2022/11/13 05:11:16;;;;;;;5.37;4.37;;;6.10;99.90;;;;;;6157393;23;20155;-43
2022/11/13 05:13:41;;;;;;;5.73;4.67;;;6.10;99.90;;;;;;6157391;23;20665;-43
2022/11/13 05:16:09;;;;;;;8.37;4.43;;;6.00;99.90;;;;;;6157307;23;20179;-43
2022/11/13 05:18:37;;;;;;;6.13;4.53;;;5.90;99.90;;;;;;6157562;23;20173;-44
2022/11/13 05:21:03;;;;;;;6.77;5.03;;;5.90;99.90;;;;;;6157629;23;20160;-41
2022/11/13 05:23:29;;;;;;;6.33;4.67;;;5.80;99.90;;;;;;6157640;23;20538;-42
2022/11/13 05:26:06;;;;;;;6.00;4.60;;;5.80;99.90;;;;;;6157328;23;20172;-42
2022/11/13 05:28:32;;;;;;;7.33;4.50;;;5.80;99.90;;;;;;6157112;23;20209;-43
2022/11/13 05:31:13;;;;;;;6.10;4.67;;;5.80;99.90;;;;;;6157578;23;20162;-44
2022/11/13 05:33:39;;;;;;;6.17;5.00;;;5.80;99.90;;;;;;6157159;23;20202;-41
2022/11/13 05:36:08;;;;;;;7.93;5.43;;;5.80;99.90;;;;;;6157031;23;20183;-44
2022/11/13 05:38:34;;;;;;;6.60;4.97;;;5.80;99.90;;;;;;6157912;23;20376;-44
2022/11/13 05:41:11;;;;;;;6.07;5.13;;;5.90;99.90;;;;;;6157517;23;20157;-43
2022/11/13 05:43:38;;;;;;;6.23;4.63;;;5.90;99.90;;;;;;6157462;23;20178;-43
2022/11/13 05:46:07;;;;;;;5.67;4.83;;;5.90;99.90;;;;;;6157455;23;20194;-45
2022/11/13 05:48:33;;;;;;;6.37;4.60;;;5.90;99.90;;;;;;6156707;23;20510;-45
2022/11/13 05:51:07;;;;;;;5.60;4.93;;;5.80;99.90;;;;;;6157478;23;20193;-44
2022/11/13 05:53:34;;;;;;;5.97;4.93;;;5.80;99.90;;;;;;6157984;23;20151;-43
2022/11/13 05:56:24;;;;;;;5.40;4.47;;;5.80;99.90;;;;;;6157146;23;20641;-44
2022/11/13 05:58:51;;;;;;;6.70;4.33;;;5.80;99.90;;;;;;6157349;23;20266;-45
2022/11/13 06:11:37;;;;;;;5.67;4.50;;;5.50;99.90;;;;;;6158192;23;20217;-44
2022/11/13 06:14:03;;;;;;;5.53;4.80;;;5.40;99.90;;;;;;6157023;23;20159;-42
2022/11/13 06:16:34;;;;;;;6.97;4.73;;;5.40;99.90;;;;;;6156723;23;20221;-42
2022/11/13 06:19:01;;;;;;;5.77;4.67;;;5.40;99.90;;;;;;6157021;23;20175;-44
2022/11/13 06:21:30;;;;;;;5.57;4.70;;;5.40;99.90;;;;;;6131114;23;20491;-40
2022/11/13 06:23:57;;;;;;;8.03;5.00;;;5.30;99.90;;;;;;6156922;23;20159;-42
2022/11/13 06:26:25;;;;;;;5.30;4.40;;;5.40;99.90;;;;;;6156909;23;20156;-42
2022/11/13 06:28:51;;;;;;;5.67;4.77;;;5.40;99.90;;;;;;6156602;23;20209;-41
2022/11/13 06:31:23;;;;;;;6.77;4.87;;;5.50;99.90;;;;;;6156733;23;20493;-41
2022/11/13 06:33:49;;;;;;;7.90;4.63;;;5.40;99.90;;;;;;6130402;23;20151;-43
2022/11/13 06:36:20;;;;;;;4.93;4.40;;;5.30;99.90;;;;;;6156807;23;20241;-43
2022/11/13 06:38:49;;;;;;;6.33;4.87;;;5.40;99.90;;;;;;6156750;23;20175;-41
2022/11/13 06:41:17;;;;;;;5.97;4.50;;;5.30;99.90;;;;;;6156454;23;20180;-41
2022/11/13 06:43:43;;;;;;;6.43;4.83;;;5.30;99.90;;;;;;6156433;23;20158;-40
2022/11/13 06:46:12;;;;;;;6.07;4.30;;;5.20;99.90;;;;;;6130369;23;20505;-43
2022/11/13 06:48:37;;;;;;;5.80;4.90;;;5.10;99.90;;;;;;6156287;23;20238;-43
2022/11/13 06:51:05;;;;;;;6.53;4.77;;;5.10;99.90;;;;;;6156423;23;20162;-43
2022/11/13 06:53:32;;;;;;;6.00;5.00;;;5.10;99.90;;;;;;6156865;23;20163;-42
2022/11/13 06:55:58;;;;;;;6.63;4.83;;;5.00;99.90;;;;;;6156372;23;20178;-44
2022/11/13 06:58:24;;;;;;;7.67;4.80;;;5.00;99.90;;;;;;6156354;23;20210;-48
2022/11/13 07:00:50;;;;;;;7.60;4.87;;;5.00;99.90;;;;;;6156556;23;20155;-48
2022/11/13 07:03:24;;;;;;;6.53;4.80;;;5.00;99.90;;;;;;6130171;23;20154;-48
2022/11/13 07:05:50;;;;;;;5.63;4.87;;;4.90;99.90;;;;;;6156544;23;20150;-49
2022/11/13 07:08:17;;;;;;;6.57;5.03;;;4.90;99.90;;;;;;6156243;23;20514;-49
2022/11/13 07:10:43;;;;;;;5.63;4.80;;;4.90;99.90;;;;;;6156342;23;20158;-48
2022/11/13 07:13:09;;;;;;;8.17;5.07;;;5.00;99.90;;;;;;6156161;23;20195;-48
2022/11/13 07:15:36;;;;;;;6.27;5.07;;;4.90;99.90;;;;;;6156464;23;20183;-47
2022/11/13 07:18:03;;;;;;;6.00;4.73;;;5.00;99.90;;;;;;6156191;23;20169;-48
2022/11/13 07:20:29;;;;;;;9.50;5.80;;;5.00;99.90;;;;;;6156545;23;20150;-48
2022/11/13 07:22:56;;;;;;;9.00;5.10;;;5.10;99.90;;;;;;6130326;23;20198;-48
2022/11/13 07:25:22;;;;;;;7.63;5.00;;;5.10;99.90;;;;;;6130043;23;20605;-48
2022/11/13 07:27:47;;;;;;;5.93;4.70;;;5.10;99.90;;;;;;6156128;23;20184;-49
2022/11/13 07:30:13;;;;;;;6.00;4.70;;;5.20;99.90;;;;;;6156529;23;20167;-49
2022/11/13 07:32:38;;;;;;;6.70;5.20;;;5.20;99.90;;;;;;6156341;23;20237;-49
2022/11/13 07:35:04;;;;;;;6.00;4.70;;;5.20;99.90;;;;;;6129757;23;20186;-48
2022/11/13 07:37:30;;;;;;;7.97;4.60;;;5.20;99.90;;;;;;6156297;23;20174;-47
2022/11/13 07:39:55;;;;;;;6.43;4.50;;;5.30;99.90;;;;;;6156735;23;20146;-49
2022/11/13 07:42:21;;;;;;;8.07;4.80;;;5.40;99.90;;;;;;6155927;23;20293;-49
2022/11/13 07:44:46;;;;;;;6.53;4.97;;;5.50;99.90;;;;;;6155894;23;20154;-49
2022/11/13 07:47:12;;;;;;;6.20;4.40;;;5.50;99.90;;;;;;6155896;23;20201;-49
2022/11/13 07:49:38;;;;;;;5.27;4.30;;;5.50;99.90;;;;;;6156151;23;20193;-48
2022/11/13 07:52:03;;;;;;;6.00;4.43;;;5.60;99.90;;;;;;6129938;23;20155;-49
2022/11/13 07:54:29;;;;;;;7.27;4.33;;;5.70;99.90;;;;;;6156019;23;20160;-49
2022/11/13 07:56:55;;;;;;;6.63;4.33;;;5.80;99.90;;;;;;6156195;23;20226;-47
2022/11/13 07:59:20;;;;;;;5.60;4.37;;;5.80;99.90;;;;;;6129965;23;20178;-48
2022/11/13 08:01:46;;;;;;;4.30;3.70;;;5.90;99.90;;;;;;6156698;23;20157;-49
2022/11/13 08:04:11;;;;;;;5.13;4.30;;;5.90;99.90;;;;;;6156374;23;20164;-49
2022/11/13 08:06:37;;;;;;;6.83;4.27;;;6.00;99.90;;;;;;6156363;23;20166;-49
2022/11/13 08:09:03;;;;;;;6.83;4.67;;;6.10;99.90;;;;;;6156246;23;20178;-49
2022/11/13 08:11:29;;;;;;;5.90;4.53;;;6.20;99.90;;;;;;6156586;23;20177;-49
2022/11/13 08:13:55;;;;;;;5.17;3.70;;;6.40;99.90;;;;;;6158666;23;20536;-49
2022/11/13 08:16:22;;;;;;;7.87;4.30;;;6.60;99.90;;;;;;6158377;23;20188;-49
2022/11/13 08:18:48;;;;;;;5.87;4.57;;;6.70;99.90;;;;;;6158347;23;20178;-49
2022/11/13 08:21:14;;;;;;;10.60;4.57;;;6.90;99.90;;;;;;6158603;23;20154;-49
2022/11/13 08:23:41;;;;;;;6.27;4.10;;;7.00;99.90;;;;;;6131737;23;20169;-48
2022/11/13 08:26:07;;;;;;;7.27;4.53;;;7.10;99.90;;;;;;6158319;23;20493;-48
2022/11/13 08:28:34;;;;;;;6.37;4.30;;;7.30;99.90;;;;;;6157813;23;20182;-48
2022/11/13 08:31:00;;;;;;;8.10;4.37;;;7.40;99.90;;;;;;6131675;23;20170;-49
2022/11/13 08:33:26;;;;;;;6.13;4.53;;;7.50;99.90;;;;;;6158492;23;20238;-49
2022/11/13 08:35:56;;;;;;;6.60;4.23;;;7.60;99.90;;;;;;6131668;23;20634;-49
2022/11/13 08:38:23;;;;;;;5.90;3.73;;;7.70;99.90;;;;;;6157663;23;20176;-48
2022/11/13 08:40:49;;;;;;;6.90;3.77;;;7.80;99.90;;;;;;6158403;23;20155;-49
2022/11/13 08:43:15;;;;;;;5.83;3.83;;;7.90;99.90;;;;;;6157690;23;20610;-48
2022/11/13 08:45:40;;;;;;;4.87;3.43;;;8.10;99.90;;;;;;6157702;23;20161;-48
2022/11/13 08:48:06;;;;;;;7.13;3.20;;;8.20;99.90;;;;;;6157587;23;20178;-48
2022/11/13 08:50:33;;;;;;;5.93;3.30;;;8.40;99.90;;;;;;6158093;23;20157;-48
2022/11/13 08:53:00;;;;;;;5.87;3.30;;;8.50;99.90;;;;;;6157906;23;20618;-49
2022/11/13 08:55:27;;;;;;;5.00;2.90;;;8.60;99.90;;;;;;6131386;23;20262;-47
2022/11/13 08:57:53;;;;;;;3.73;2.73;;;8.70;99.90;;;;;;6157356;23;20231;-48
2022/11/13 09:00:19;;;;;;;4.80;3.20;;;8.80;99.90;;;;;;6157855;23;20230;-49
2022/11/13 09:02:45;;;;;;;5.13;3.50;;;9.00;99.90;;;;;;6157880;23;20213;-49
2022/11/13 09:08:33;;;;;;;4.20;2.97;;;9.20;99.90;;;;;;6157421;23;20183;-48
2022/11/13 09:11:04;;;;;;;5.30;3.30;;;9.30;99.90;;;;;;6158051;23;20498;-47
2022/11/13 09:13:30;;;;;;;5.17;2.33;;;9.50;99.90;;;;;;6157295;23;20203;-47
2022/11/13 09:15:58;;;;;;;6.27;3.37;;;9.60;99.90;;;;;;6157308;23;20654;-49
2022/11/13 09:18:24;;;;;;;3.77;3.10;;;9.70;99.90;;;;;;6157914;23;20179;-49
2022/11/13 09:20:49;;;;;;;5.33;3.13;;;9.80;99.90;;;;;;6157359;23;20157;-49
2022/11/13 09:23:15;;;;;;;5.77;2.60;;;9.80;99.90;;;;;;6157899;23;20178;-48
2022/11/13 09:25:40;;;;;;;3.97;3.10;;;9.90;99.90;;;;;;6157365;23;20158;-49
2022/11/13 09:28:08;;;;;;;9.90;3.47;;;10.00;99.90;;;;;;6157471;23;20216;-50
2022/11/13 09:30:37;;;;;;;5.70;2.57;;;10.10;99.90;;;;;;6157502;23;20658;-49
2022/11/13 09:33:04;;;;;;;4.03;2.83;;;10.10;99.90;;;;;;6157395;23;20220;-47
2022/11/13 09:35:33;;;;;;;4.50;2.80;;;10.20;99.90;;;;;;6156963;23;20221;-50
2022/11/13 09:38:04;;;;;;;5.60;3.57;;;10.30;99.90;;;;;;6130781;23;20185;-50
2022/11/13 09:40:52;;;;;;;3.63;3.00;;;10.40;99.90;;;;;;6157410;23;20213;-48
2022/11/13 09:43:32;;;;;;;5.47;3.60;;;10.50;99.90;;;;;;6155599;23;20209;-49
2022/11/13 09:46:02;;;;;;;6.50;3.10;;;10.60;99.90;;;;;;6157483;23;20145;-49
2022/11/13 09:48:36;;;;;;;5.43;3.10;;;10.70;99.90;;;;;;6157370;23;20176;-50
2022/11/13 09:51:20;;;;;;;3.77;2.57;;;10.80;99.90;;;;;;6157126;23;20153;-49
2022/11/13 09:53:45;;;;;;;7.07;3.17;;;10.90;99.90;;;;;;6157488;23;20147;-47
2022/11/13 09:56:16;;;;;;;8.80;2.93;;;11.00;99.90;;;;;;6156982;23;20185;-49
2022/11/13 09:59:11;;;;;;;4.33;2.87;;;11.10;99.90;;;;;;6157039;23;20175;-50
2022/11/13 10:01:48;;;;;;;5.67;2.63;;;11.20;99.90;;;;;;6156063;23;20165;-50
2022/11/13 10:04:18;;;;;;;7.97;3.13;;;11.30;99.90;;;;;;6157448;23;20220;-50
2022/11/13 10:06:59;;;;;;;5.10;2.80;;;11.40;99.90;;;;;;6156972;23;20167;-50
2022/11/13 10:10:00;;;;;;;5.77;2.70;;;11.50;99.90;;;;;;6157000;23;20176;-48
2022/11/13 10:12:30;;;;;;;4.03;2.87;;;11.60;99.90;;;;;;6150874;23;20308;-50
2022/11/13 10:15:01;;;;;;;5.67;2.80;;;11.70;99.90;;;;;;6130731;23;20176;-49
2022/11/13 10:17:46;;;;;;;4.53;2.80;;;11.80;99.90;;;;;;6155258;23;20161;-44
2022/11/13 10:20:21;;;;;;;3.93;2.50;;;11.80;99.90;;;;;;6157308;23;20142;-43
2022/11/13 10:22:50;;;;;;;9.10;3.17;;;12.00;99.90;;;;;;6157272;23;20149;-43
2022/11/13 10:25:22;;;;;;;3.63;2.67;;;12.00;99.90;;;;;;6156879;23;20237;-44
2022/11/13 10:27:53;;;;;;;5.27;2.77;;;12.10;99.90;;;;;;6156814;23;20575;-43
2022/11/13 10:30:19;;;;;;;4.20;2.53;;;12.20;99.90;;;;;;6157736;23;20142;-43
2022/11/13 10:32:45;;;;;;;5.30;2.47;;;12.30;99.90;;;;;;6157810;23;20165;-43
2022/11/13 10:35:37;;;;;;;4.87;2.10;;;12.40;99.90;;;;;;6157595;23;20195;-45
2022/11/13 10:38:29;;;;;;;3.37;2.30;;;12.40;99.90;;;;;;6157324;23;20177;-45
2022/11/13 10:41:12;;;;;;;5.40;2.63;;;12.50;99.90;;;;;;6159165;23;20146;-43
2022/11/13 10:44:10;;;;;;;3.87;2.17;;;12.60;99.90;;;;;;6159047;23;20180;-44
2022/11/13 10:46:36;;;;;;;3.50;2.43;;;12.70;99.90;;;;;;6157738;23;20164;-43
2022/11/13 10:49:25;;;;;;;3.43;2.23;;;12.80;99.90;;;;;;6156754;23;20181;-46
2022/11/13 10:51:59;;;;;;;3.73;1.93;;;12.90;99.90;;;;;;6157019;23;20153;-44
2022/11/13 10:54:28;;;;;;;4.47;2.30;;;13.00;99.90;;;;;;6156725;23;20163;-46
2022/11/13 10:57:17;;;;;;;3.20;2.10;;;13.10;99.90;;;;;;6156521;23;20209;-42
2022/11/13 10:59:44;;;;;;;3.77;2.10;;;13.20;99.90;;;;;;6156566;23;20196;-44
2022/11/13 11:02:23;;;;;;;2.60;1.97;;;13.30;99.90;;;;;;6157108;23;20184;-44
2022/11/13 11:04:59;;;;;;;2.43;1.80;;;13.40;99.90;;;;;;6156808;23;20150;-44
2022/11/13 11:07:25;;;;;;;3.03;1.80;;;13.50;99.90;;;;;;6130436;23;20538;-43
2022/11/13 11:09:51;;;;;;;2.30;1.73;;;13.60;99.90;;;;;;6156801;23;20178;-44
2022/11/13 11:12:20;;;;;;;2.30;1.97;;;13.70;99.90;;;;;;6130353;23;20177;-46
2022/11/13 11:15:02;;;;;;;2.70;1.60;;;13.80;99.90;;;;;;6129978;23;20236;-46
2022/11/13 11:17:49;;;;;;;2.07;1.53;;;13.90;99.90;;;;;;6156717;23;20137;-44
2022/11/13 11:20:42;;;;;;;2.23;1.70;;;14.00;99.90;;;;;;6156476;23;20143;-43
2022/11/13 11:23:17;;;;;;;2.13;1.80;;;14.10;99.90;;;;;;6130387;23;20196;-49
2022/11/13 11:25:58;;;;;;;1.83;1.60;;;14.20;99.90;;;;;;6157275;23;20149;-50
2022/11/13 11:28:42;;;;;;;2.23;1.50;;;14.30;99.90;;;;;;6156362;23;20209;-49
2022/11/13 11:31:25;;;;;;;1.60;1.47;;;14.40;99.90;;;;;;6156585;23;20146;-49
2022/11/13 11:34:01;;;;;;;1.83;1.50;;;14.50;99.90;;;;;;6130939;23;20218;-49
2022/11/13 11:36:33;;;;;;;2.40;1.43;;;14.60;99.90;;;;;;6156282;23;20715;-47
2022/11/13 11:39:14;;;;;;;1.87;1.33;;;14.70;99.90;;;;;;6157168;23;20181;-49
2022/11/13 11:41:45;;;;;;;2.37;1.70;;;14.80;99.90;;;;;;6156426;23;20173;-51
2022/11/13 11:44:51;;;;;;;2.07;1.43;;;14.90;99.90;;;;;;6131116;23;20165;-49
2022/11/13 11:47:17;;;;;;;2.27;1.40;;;15.00;99.90;;;;;;6115790;23;20168;-48
2022/11/13 11:49:44;;;;;;;2.30;1.23;;;15.10;99.90;;;;;;6156086;23;20153;-49
2022/11/13 11:52:31;;;;;;;1.57;1.37;;;15.20;99.90;;;;;;6157310;23;20161;-49
2022/11/13 11:55:46;;;;;;;1.97;1.57;;;15.30;99.90;;;;;;6156294;23;20572;-50
2022/11/13 11:58:50;;;;;;;1.90;1.40;;;15.30;99.90;;;;;;6135296;23;20185;-49
2022/11/13 12:01:40;;;;;;;2.43;1.40;;;15.50;99.90;;;;;;6100933;23;20541;-49
2022/11/13 12:04:11;;;;;;;1.90;1.23;;;15.60;99.90;;;;;;6156727;23;20630;-48
2022/11/13 12:07:03;;;;;;;2.07;1.50;;;15.60;99.90;;;;;;6156254;23;20565;-48
2022/11/13 12:09:41;;;;;;;2.37;1.60;;;15.70;99.90;;;;;;6156347;23;20177;-50
2022/11/13 12:12:25;;;;;;;1.63;1.50;;;15.80;99.90;;;;;;6156311;23;20173;-48
2022/11/13 12:15:23;;;;;;;1.83;1.50;;;15.80;99.90;;;;;;6156326;23;20142;-51
2022/11/13 12:18:13;;;;;;;2.50;1.40;;;15.90;99.90;;;;;;6092094;23;20257;-50
2022/11/13 12:20:54;;;;;;;3.50;1.63;;;16.00;99.90;;;;;;6129878;23;20146;-50
2022/11/13 12:23:44;;;;;;;2.13;1.30;;;16.10;99.90;;;;;;6156340;23;20138;-49
2022/11/13 12:26:22;;;;;;;1.57;1.40;;;16.10;99.90;;;;;;6155949;23;20181;-50
2022/11/13 12:28:59;;;;;;;1.73;1.37;;;16.20;99.90;;;;;;6156066;23;20494;-51
2022/11/13 12:31:39;;;;;;;2.43;1.50;;;16.30;99.90;;;;;;6156294;23;20216;-51
2022/11/13 12:34:25;;;;;;;1.37;1.07;;;16.30;99.90;;;;;;6156235;23;20150;-51
2022/11/13 12:36:52;;;;;;;1.20;1.10;;;16.40;99.90;;;;;;6135072;23;20248;-49
2022/11/13 12:39:38;;;;;;;1.83;1.40;;;16.50;99.90;;;;;;6155535;23;20521;-49
2022/11/13 12:42:22;;;;;;;1.40;0.97;;;16.40;99.90;;;;;;6156118;23;20189;-50
2022/11/13 12:44:59;;;;;;;1.27;1.10;;;16.50;99.90;;;;;;6155902;23;20520;-49
2022/11/13 12:47:25;;;;;;;2.90;1.57;;;16.60;99.90;;;;;;6155601;23;20156;-52
2022/11/13 12:49:59;;;;;;;1.63;1.30;;;16.60;99.90;;;;;;6155923;23;20232;-50
2022/11/13 12:52:25;;;;;;;1.80;1.17;;;16.70;99.90;;;;;;6129670;23;20192;-48
2022/11/13 12:55:03;;;;;;;1.40;1.13;;;16.70;99.90;;;;;;6156027;23;20158;-49
2022/11/13 12:57:30;;;;;;;1.63;1.37;;;16.80;99.90;;;;;;6156250;23;20324;-50
2022/11/13 12:59:59;;;;;;;3.30;1.23;;;16.80;99.90;;;;;;6157610;23;20150;-51
2022/11/13 13:02:53;;;;;;;2.50;1.13;;;16.90;99.90;;;;;;6131983;23;20158;-50
2022/11/13 13:05:39;;;;;;;1.30;1.20;;;16.90;99.90;;;;;;6157431;23;20157;-49
2022/11/13 13:08:30;;;;;;;1.40;1.20;;;17.00;99.90;;;;;;6157760;23;20177;-49
2022/11/13 13:10:59;;;;;;;3.53;1.10;;;17.00;99.90;;;;;;6158285;23;20153;-51
2022/11/13 13:13:43;;;;;;;1.03;0.93;;;17.00;99.90;;;;;;6157281;23;20173;-49
2022/11/13 13:16:10;;;;;;;1.23;1.10;;;17.10;99.90;;;;;;6157737;23;20179;-50
2022/11/13 13:18:37;;;;;;;1.10;1.00;;;17.10;99.90;;;;;;6157615;23;20174;-50
2022/11/13 13:21:12;;;;;;;0.93;0.90;;;17.10;99.90;;;;;;6157342;23;20161;-51
2022/11/13 13:23:42;;;;;;;1.40;1.00;;;17.20;99.90;;;;;;6157449;23;20208;-50
2022/11/13 13:26:16;;;;;;;1.13;0.93;;;17.20;99.90;;;;;;6157708;23;20173;-47